Time;durP1;ratioP1;P1;durP2;ratioP2;P2;SDS_P1;SDS_P2;PMS_P1;PMS_P2;Temp;Humidity;BMP_temperature;BMP_pressure;BME280_temperature;BME280_humidity;BME280_pressure;Samples;Min_cycle;Max_cycle;Signal;HPM_P1;HPM_P2
2022/07/02 00:00:22;;;;;;;5.60;4.33;;;12.60;99.90;;;;;;5036738;28;20743;-62
2022/07/02 00:02:55;;;;;;;4.10;3.17;;;12.60;99.90;;;;;;5036077;28;20553;-62
2022/07/02 00:05:25;;;;;;;4.40;3.67;;;12.50;99.90;;;;;;5033761;28;20898;-62
2022/07/02 00:07:53;;;;;;;4.70;3.97;;;12.50;99.90;;;;;;5056062;28;20543;-62
2022/07/02 00:10:25;;;;;;;8.30;3.90;;;12.50;99.90;;;;;;5055322;28;20775;-62
2022/07/02 00:12:53;;;;;;;5.00;3.57;;;12.50;99.90;;;;;;5054920;28;20818;-62
2022/07/02 00:15:22;;;;;;;5.67;3.37;;;12.40;99.90;;;;;;5055652;28;20552;-62
2022/07/02 00:17:51;;;;;;;4.00;3.60;;;12.40;99.90;;;;;;5057648;28;20466;-62
2022/07/02 00:20:19;;;;;;;5.30;3.17;;;12.40;99.90;;;;;;5056054;28;20468;-61
2022/07/02 00:22:50;;;;;;;4.50;3.80;;;12.30;99.90;;;;;;5055435;28;20462;-62
2022/07/02 00:25:23;;;;;;;3.50;3.20;;;12.20;99.90;;;;;;5059706;28;20494;-62
2022/07/02 00:27:54;;;;;;;6.50;3.97;;;12.20;99.90;;;;;;5059430;28;20466;-62
2022/07/02 00:30:22;;;;;;;4.60;3.27;;;12.20;1.00;;;;;;5059775;28;20894;-62
2022/07/02 00:32:52;;;;;;;3.50;3.20;;;12.10;1.00;;;;;;5059658;28;20468;-62
2022/07/02 00:35:20;;;;;;;5.30;3.43;;;12.00;1.00;;;;;;5059295;28;20494;-62
2022/07/02 00:37:49;;;;;;;4.37;3.30;;;12.00;1.00;;;;;;5058593;28;20432;-62
2022/07/02 00:40:19;;;;;;;4.17;3.57;;;12.00;1.00;;;;;;5059168;28;20474;-62
2022/07/02 00:42:47;;;;;;;5.50;4.20;;;12.00;1.00;;;;;;5059281;28;20557;-62
2022/07/02 00:45:18;;;;;;;5.03;4.03;;;12.00;1.00;;;;;;5059733;28;20956;-62
2022/07/02 00:47:46;;;;;;;4.30;3.33;;;12.00;1.00;;;;;;5059778;28;20469;-62
2022/07/02 00:50:14;;;;;;;4.57;3.50;;;11.90;1.00;;;;;;5059149;28;20775;-62
2022/07/02 00:52:41;;;;;;;6.63;4.10;;;11.90;1.00;;;;;;5059102;28;20473;-62
2022/07/02 00:55:09;;;;;;;7.17;4.70;;;11.90;1.00;;;;;;5059218;28;20462;-62
2022/07/02 00:57:37;;;;;;;5.47;4.93;;;11.80;1.00;;;;;;5014264;28;1290940;-62
2022/07/02 01:00:06;;;;;;;5.70;3.53;;;11.80;1.00;;;;;;5060291;28;20261;-62
2022/07/02 01:02:38;;;;;;;5.27;3.40;;;11.70;1.00;;;;;;5060184;28;20553;-62
2022/07/02 01:05:07;;;;;;;4.50;3.80;;;11.70;1.00;;;;;;5060850;28;20497;-62
2022/07/02 01:07:35;;;;;;;4.53;4.00;;;11.70;1.00;;;;;;5060661;28;20468;-62
2022/07/02 01:10:17;;;;;;;5.03;3.70;;;11.70;1.00;;;;;;5059592;28;20557;-62
2022/07/02 01:12:46;;;;;;;6.47;3.27;;;11.70;1.00;;;;;;5060478;28;20454;-62
2022/07/02 01:15:14;;;;;;;4.70;3.40;;;11.70;1.00;;;;;;5060126;28;20468;-62
2022/07/02 01:17:43;;;;;;;4.67;3.40;;;11.70;1.00;;;;;;5059526;28;20482;-62
2022/07/02 01:20:11;;;;;;;3.60;3.30;;;11.60;1.00;;;;;;5059823;28;20461;-62
2022/07/02 01:22:44;;;;;;;5.23;3.77;;;11.50;1.00;;;;;;5059808;28;20462;-62
2022/07/02 01:25:12;;;;;;;6.60;4.20;;;11.60;1.00;;;;;;5059331;28;20493;-62
2022/07/02 01:27:39;;;;;;;4.47;3.57;;;11.60;1.00;;;;;;5058823;28;20854;-62
2022/07/02 01:30:11;;;;;;;3.47;3.17;;;11.50;1.00;;;;;;5058405;28;20482;-62
2022/07/02 01:32:41;;;;;;;5.13;3.60;;;11.40;1.00;;;;;;5058758;28;20787;-62
2022/07/02 01:35:10;;;;;;;4.20;3.80;;;11.40;1.00;;;;;;5058778;28;20502;-62
2022/07/02 01:37:40;;;;;;;5.70;3.50;;;11.40;1.00;;;;;;5059921;28;20462;-62
2022/07/02 01:40:09;;;;;;;4.97;3.70;;;11.30;1.00;;;;;;5059284;28;20462;-62
2022/07/02 01:42:37;;;;;;;4.47;3.60;;;11.30;1.00;;;;;;5059361;28;20459;-62
2022/07/02 01:45:05;;;;;;;4.10;3.70;;;11.30;1.00;;;;;;5060011;28;20942;-62
2022/07/02 01:47:36;;;;;;;4.17;3.73;;;11.30;1.00;;;;;;5059083;28;20469;-62
2022/07/02 01:50:05;;;;;;;4.00;3.50;;;11.30;1.00;;;;;;5057605;28;20458;-62
2022/07/02 01:52:32;;;;;;;5.53;3.70;;;11.20;1.00;;;;;;5058119;28;20886;-62
2022/07/02 01:55:01;;;;;;;6.00;3.70;;;11.10;1.00;;;;;;5058159;28;20758;-62
2022/07/02 01:57:33;;;;;;;5.37;4.17;;;11.10;1.00;;;;;;5058161;28;20486;-62
2022/07/02 02:00:00;;;;;;;4.57;3.50;;;11.10;1.00;;;;;;5058895;28;20470;-62
2022/07/02 02:02:28;;;;;;;5.83;4.17;;;11.10;1.00;;;;;;5059629;28;20437;-63
2022/07/02 02:04:55;;;;;;;4.77;4.00;;;11.20;1.00;;;;;;5059350;28;20475;-62
2022/07/02 02:07:23;;;;;;;5.23;4.03;;;11.20;1.00;;;;;;5059510;28;20559;-62
2022/07/02 02:09:50;;;;;;;4.50;4.10;;;11.20;1.00;;;;;;5058495;28;20548;-62
2022/07/02 02:12:18;;;;;;;4.10;3.60;;;11.20;1.00;;;;;;5058693;28;20471;-63
2022/07/02 02:14:46;;;;;;;5.10;4.23;;;11.10;1.00;;;;;;5058989;28;20462;-63
2022/07/02 02:17:15;;;;;;;9.10;4.33;;;11.10;1.00;;;;;;5059512;28;20465;-62
2022/07/02 02:19:42;;;;;;;5.10;4.60;;;11.10;1.00;;;;;;5059046;28;20878;-62
2022/07/02 02:22:09;;;;;;;5.57;4.20;;;11.00;1.00;;;;;;5058578;28;20472;-62
2022/07/02 02:24:37;;;;;;;5.40;4.57;;;11.00;1.00;;;;;;5058786;28;20863;-62
2022/07/02 02:27:04;;;;;;;7.20;3.90;;;10.90;1.00;;;;;;5059377;28;20489;-61
2022/07/02 02:29:36;;;;;;;6.43;3.73;;;10.90;1.00;;;;;;5059055;28;20498;-61
2022/07/02 02:32:03;;;;;;;5.70;4.37;;;10.80;1.00;;;;;;5058833;28;20472;-61
2022/07/02 02:34:32;;;;;;;4.93;4.10;;;10.80;1.00;;;;;;5058205;28;20458;-62
2022/07/02 02:36:59;;;;;;;4.70;4.20;;;10.80;1.00;;;;;;5057922;28;20475;-62
2022/07/02 02:39:29;;;;;;;4.73;4.17;;;10.80;1.00;;;;;;5058802;28;20444;-62
2022/07/02 02:41:56;;;;;;;6.10;4.00;;;10.70;1.00;;;;;;5058073;28;20517;-62
2022/07/02 02:44:23;;;;;;;6.60;4.30;;;10.70;1.00;;;;;;5058468;28;20490;-62
2022/07/02 02:46:53;;;;;;;4.83;4.23;;;10.80;1.00;;;;;;5057871;28;20447;-63
2022/07/02 02:49:21;;;;;;;4.77;4.20;;;10.80;1.00;;;;;;5058743;28;20462;-63
2022/07/02 02:51:49;;;;;;;5.47;4.10;;;10.80;1.00;;;;;;5057952;28;20556;-63
2022/07/02 02:54:16;;;;;;;4.67;4.13;;;10.70;1.00;;;;;;5057673;28;20443;-63
2022/07/02 02:56:43;;;;;;;5.03;3.97;;;10.70;1.00;;;;;;5058039;28;20441;-63
2022/07/02 02:59:11;;;;;;;5.27;4.17;;;10.60;1.00;;;;;;5058355;28;20464;-63
2022/07/02 03:01:38;;;;;;;5.20;3.90;;;10.60;1.00;;;;;;5058120;28;20764;-63
2022/07/02 03:04:07;;;;;;;4.07;3.77;;;10.70;1.00;;;;;;5057650;28;20493;-63
2022/07/02 03:06:34;;;;;;;5.23;4.40;;;10.60;1.00;;;;;;5057973;28;20466;-63
2022/07/02 03:09:02;;;;;;;6.07;4.57;;;10.60;1.00;;;;;;5057897;28;20469;-63
2022/07/02 03:11:29;;;;;;;5.77;4.20;;;10.60;1.00;;;;;;5057690;28;20557;-63
2022/07/02 03:13:56;;;;;;;5.13;4.27;;;10.60;1.00;;;;;;5057573;28;20515;-63
2022/07/02 03:16:23;;;;;;;4.90;4.30;;;10.60;1.00;;;;;;5057406;28;20902;-63
2022/07/02 03:18:51;;;;;;;4.50;4.10;;;10.60;1.00;;;;;;5057933;28;20468;-63
2022/07/02 03:21:22;;;;;;;4.83;4.43;;;10.50;1.00;;;;;;5057407;28;20458;-63
2022/07/02 03:23:50;;;;;;;4.20;3.80;;;10.50;1.00;;;;;;5057619;28;20443;-62
2022/07/02 03:26:20;;;;;;;5.17;4.40;;;10.50;1.00;;;;;;5057556;28;20472;-63
2022/07/02 03:28:47;;;;;;;4.77;4.30;;;10.50;1.00;;;;;;5057971;28;20553;-63
2022/07/02 03:31:14;;;;;;;6.50;4.20;;;10.50;1.00;;;;;;5057860;28;20561;-63
2022/07/02 03:33:41;;;;;;;5.00;4.20;;;10.40;1.00;;;;;;5057699;28;20469;-63
2022/07/02 03:36:11;;;;;;;7.57;4.80;;;10.40;1.00;;;;;;5056842;28;20894;-63
2022/07/02 03:38:40;;;;;;;6.80;4.47;;;10.40;1.00;;;;;;5056825;28;20466;-62
2022/07/02 03:41:10;;;;;;;6.30;4.00;;;10.40;1.00;;;;;;5057164;28;20433;-63
2022/07/02 03:43:37;;;;;;;4.67;4.20;;;10.50;1.00;;;;;;5057495;28;20465;-63
2022/07/02 03:46:06;;;;;;;4.80;4.03;;;10.50;1.00;;;;;;5057349;28;20494;-63
2022/07/02 03:48:34;;;;;;;6.40;4.47;;;10.50;1.00;;;;;;5057256;28;20466;-63
2022/07/02 03:51:01;;;;;;;6.90;4.43;;;10.50;1.00;;;;;;5057769;28;20468;-63
2022/07/02 03:53:30;;;;;;;4.83;4.17;;;10.50;1.00;;;;;;5057236;28;20443;-63
2022/07/02 03:56:01;;;;;;;3.87;3.53;;;10.50;1.00;;;;;;5056611;28;20471;-63
2022/07/02 03:58:30;;;;;;;4.50;4.10;;;10.50;1.00;;;;;;5057104;28;20490;-63
2022/07/02 04:01:00;;;;;;;4.77;4.07;;;10.50;1.00;;;;;;5056920;28;20528;-63
2022/07/02 04:03:27;;;;;;;6.87;4.40;;;10.50;1.00;;;;;;5057436;28;20466;-63
2022/07/02 04:05:54;;;;;;;5.20;4.50;;;10.50;1.00;;;;;;5056503;28;20493;-63
2022/07/02 04:08:21;;;;;;;4.80;4.40;;;10.60;1.00;;;;;;5056834;28;20466;-62
2022/07/02 04:10:49;;;;;;;4.70;4.30;;;10.60;1.00;;;;;;5056953;28;20501;-63
2022/07/02 04:13:18;;;;;;;6.90;4.30;;;10.60;1.00;;;;;;5057321;28;20535;-63
2022/07/02 04:15:45;;;;;;;6.07;4.40;;;10.70;1.00;;;;;;5057143;28;20871;-63
2022/07/02 04:18:12;;;;;;;4.50;3.93;;;10.70;1.00;;;;;;5057019;28;20441;-63
2022/07/02 04:20:42;;;;;;;4.50;4.10;;;10.80;1.00;;;;;;5056726;28;20443;-63
2022/07/02 04:23:12;;;;;;;4.30;3.90;;;10.80;1.00;;;;;;5056225;28;20470;-64
2022/07/02 04:25:39;;;;;;;4.50;3.97;;;10.90;1.00;;;;;;5056504;28;20482;-63
2022/07/02 04:28:10;;;;;;;3.87;3.57;;;11.00;1.00;;;;;;5056800;28;20462;-63
2022/07/02 04:30:41;;;;;;;6.03;4.50;;;11.00;1.00;;;;;;5056630;28;20466;-63
2022/07/02 04:33:09;;;;;;;4.70;4.30;;;11.00;1.00;;;;;;5056669;28;20516;-63
2022/07/02 04:35:36;;;;;;;4.90;4.00;;;10.90;1.00;;;;;;5055143;28;20455;-63
2022/07/02 04:38:04;;;;;;;7.23;4.90;;;11.00;1.00;;;;;;5055796;28;20465;-63
2022/07/02 04:40:34;;;;;;;4.97;4.00;;;11.10;1.00;;;;;;5056781;28;20504;-63
2022/07/02 04:43:03;;;;;;;4.70;4.23;;;11.20;1.00;;;;;;5056481;28;20894;-63
2022/07/02 04:45:30;;;;;;;7.20;4.47;;;11.30;1.00;;;;;;5056966;28;20486;-63
2022/07/02 04:47:59;;;;;;;5.90;4.83;;;11.30;1.00;;;;;;5056328;28;20548;-63
2022/07/02 04:50:27;;;;;;;4.80;4.30;;;11.40;1.00;;;;;;5056483;28;20548;-64
2022/07/02 04:52:54;;;;;;;5.27;4.27;;;11.40;1.00;;;;;;5056565;28;20443;-63
2022/07/02 04:55:22;;;;;;;4.67;4.17;;;11.50;1.00;;;;;;5041448;28;20472;-63
2022/07/02 04:57:49;;;;;;;4.53;4.13;;;11.50;1.00;;;;;;5035902;28;20573;-63
2022/07/02 05:00:17;;;;;;;5.70;4.47;;;11.60;1.00;;;;;;5036013;28;20467;-63
2022/07/02 05:02:44;;;;;;;5.07;3.93;;;11.70;1.00;;;;;;5035957;28;20468;-63
2022/07/02 05:05:20;;;;;;;5.20;4.50;;;11.80;1.00;;;;;;5036530;28;20779;-63
2022/07/02 05:07:47;;;;;;;4.60;3.57;;;11.90;1.00;;;;;;5036212;28;20929;-63
2022/07/02 05:10:14;;;;;;;5.07;4.40;;;12.00;1.00;;;;;;5039299;28;20979;-63
2022/07/02 05:12:45;;;;;;;5.10;4.47;;;12.10;1.00;;;;;;5040453;28;20495;-63
2022/07/02 05:15:12;;;;;;;4.90;3.50;;;12.20;1.00;;;;;;5040468;28;20440;-63
2022/07/02 05:17:39;;;;;;;4.97;4.50;;;12.30;1.00;;;;;;5040249;28;20498;-63
2022/07/02 05:20:19;;;;;;;6.40;4.17;;;12.50;1.00;;;;;;5040279;28;20463;-63
2022/07/02 05:22:48;;;;;;;5.10;4.60;;;12.60;1.00;;;;;;5039893;28;20494;-63
2022/07/02 05:25:15;;;;;;;4.47;4.07;;;12.70;1.00;;;;;;5039941;28;20490;-63
2022/07/02 05:27:42;;;;;;;4.80;4.00;;;12.80;1.00;;;;;;5039974;28;20470;-63
2022/07/02 05:30:11;;;;;;;5.50;3.90;;;13.00;1.00;;;;;;5039813;28;20444;-63
2022/07/02 05:32:42;;;;;;;6.10;4.03;;;13.20;1.00;;;;;;5039615;28;20462;-63
2022/07/02 05:35:10;;;;;;;7.70;4.50;;;13.40;1.00;;;;;;5039678;28;20464;-64
2022/07/02 05:37:37;;;;;;;4.13;3.57;;;13.60;1.00;;;;;;5039129;28;20924;-63
2022/07/02 05:40:07;;;;;;;7.47;4.67;;;13.80;1.00;;;;;;5039562;28;20497;-63
2022/07/02 05:42:35;;;;;;;3.70;3.40;;;14.00;1.00;;;;;;5039104;28;20465;-62
2022/07/02 05:45:04;;;;;;;4.57;3.97;;;14.20;1.00;;;;;;5038569;28;21017;-62
2022/07/02 05:47:31;;;;;;;3.83;3.20;;;14.50;1.00;;;;;;5038845;28;20442;-62
2022/07/02 05:49:58;;;;;;;4.27;3.87;;;14.90;99.90;;;;;;5038846;28;20463;-62
2022/07/02 05:52:26;;;;;;;3.80;3.50;;;15.20;99.90;;;;;;5038877;28;20467;-62
2022/07/02 05:54:53;;;;;;;3.67;3.37;;;15.50;99.90;;;;;;5038977;28;20482;-62
2022/07/02 05:57:23;;;;;;;6.33;3.67;;;15.80;99.90;;;;;;5039133;28;20582;-62
2022/07/02 05:59:56;;;;;;;6.33;3.20;;;16.20;99.90;;;;;;5039035;28;20463;-62
2022/07/02 06:02:25;;;;;;;4.43;3.10;;;16.50;99.90;;;;;;5038999;28;20467;-62
2022/07/02 06:04:52;;;;;;;4.20;3.30;;;16.70;99.90;;;;;;5038456;28;20462;-62
2022/07/02 06:10:08;;;;;;;2.77;2.50;;;17.20;99.90;;;;;;5038709;28;20729;-62
2022/07/02 06:12:36;;;;;;;4.47;3.63;;;17.50;99.90;;;;;;5039129;28;20463;-61
2022/07/02 06:15:04;;;;;;;3.53;2.70;;;17.90;99.90;;;;;;5038963;28;20463;-61
2022/07/02 06:17:38;;;;;;;6.07;3.23;;;18.40;99.90;;;;;;5039339;28;20561;-62
2022/07/02 06:20:05;;;;;;;4.10;2.80;;;18.60;99.90;;;;;;5038155;28;20463;-61
2022/07/02 06:22:34;;;;;;;5.77;3.47;;;18.90;99.90;;;;;;5039330;28;20708;-61
2022/07/02 06:25:02;;;;;;;3.23;2.80;;;19.30;99.90;;;;;;5039378;28;20478;-62
2022/07/02 06:27:30;;;;;;;4.20;2.87;;;19.50;99.90;;;;;;5039350;28;20550;-62
2022/07/02 06:30:04;;;;;;;5.60;2.50;;;19.70;99.90;;;;;;5038929;28;20970;-61
2022/07/02 06:32:32;;;;;;;4.37;2.80;;;19.80;99.90;;;;;;5039167;28;20732;-61
2022/07/02 06:34:59;;;;;;;3.30;2.33;;;19.90;99.90;;;;;;5039155;28;20471;-61
2022/07/02 06:37:27;;;;;;;3.60;2.33;;;20.00;99.90;;;;;;5038405;28;20759;-62
2022/07/02 06:39:54;;;;;;;3.40;2.63;;;20.40;99.90;;;;;;5038720;28;20448;-62
2022/07/02 06:42:22;;;;;;;6.00;3.00;;;20.40;99.90;;;;;;5038740;28;20468;-62
2022/07/02 06:44:51;;;;;;;3.07;2.67;;;20.40;99.90;;;;;;5039290;28;20978;-62
2022/07/02 06:47:21;;;;;;;4.37;2.53;;;20.80;99.90;;;;;;5039695;28;20463;-62
2022/07/02 06:49:55;;;;;;;3.50;2.50;;;21.10;99.90;;;;;;5038929;28;20441;-61
2022/07/02 06:52:23;;;;;;;4.80;3.30;;;21.40;99.90;;;;;;5039024;28;20780;-62
2022/07/02 06:54:52;;;;;;;3.40;2.80;;;21.70;99.90;;;;;;5038924;28;20437;-62
2022/07/02 06:57:19;;;;;;;3.50;2.70;;;22.00;99.90;;;;;;5038446;28;20490;-62
2022/07/02 06:59:49;;;;;;;2.60;2.17;;;22.00;99.90;;;;;;5039038;28;20437;-62
2022/07/02 07:02:16;;;;;;;2.50;2.30;;;22.20;99.90;;;;;;5038891;28;20463;-61
2022/07/02 07:04:45;;;;;;;2.60;2.30;;;22.50;99.90;;;;;;5039161;28;20466;-61
2022/07/02 07:07:13;;;;;;;3.83;2.30;;;22.80;99.90;;;;;;5038755;28;20581;-62
2022/07/02 07:09:40;;;;;;;2.73;2.37;;;23.00;99.90;;;;;;5038686;28;20495;-62
2022/07/02 07:12:08;;;;;;;2.50;2.10;;;23.00;99.90;;;;;;5037319;28;20470;-62
2022/07/02 07:14:36;;;;;;;2.57;2.20;;;23.40;99.90;;;;;;5037768;28;20475;-61
2022/07/02 07:17:04;;;;;;;4.80;2.43;;;23.30;99.90;;;;;;5037901;28;20459;-62
2022/07/02 07:19:31;;;;;;;2.33;2.10;;;23.30;99.90;;;;;;5038350;28;20541;-62
2022/07/02 07:22:00;;;;;;;3.50;1.80;;;23.40;99.90;;;;;;5037704;28;20525;-61
2022/07/02 07:24:27;;;;;;;2.47;2.20;;;23.40;99.90;;;;;;5037629;28;20463;-62
2022/07/02 07:27:01;;;;;;;6.30;2.37;;;23.50;99.90;;;;;;5037979;28;20494;-61
2022/07/02 07:29:35;;;;;;;4.40;2.00;;;23.20;99.90;;;;;;5039000;28;20463;-61
2022/07/02 07:32:05;;;;;;;2.20;1.77;;;23.00;99.90;;;;;;5037773;28;20806;-62
2022/07/02 07:34:37;;;;;;;2.23;2.00;;;23.20;99.90;;;;;;5037712;28;20772;-62
2022/07/02 07:37:05;;;;;;;5.20;2.03;;;23.40;99.90;;;;;;5038429;28;20954;-61
2022/07/02 07:39:35;;;;;;;2.30;1.50;;;23.80;99.90;;;;;;5037261;28;20471;-61
2022/07/02 07:42:02;;;;;;;1.93;1.60;;;23.50;99.90;;;;;;5037733;28;20759;-61
2022/07/02 07:44:31;;;;;;;2.60;1.83;;;23.60;99.90;;;;;;5038178;28;20907;-61
2022/07/02 07:47:04;;;;;;;2.20;2.10;;;23.80;99.90;;;;;;5037749;28;20548;-61
2022/07/02 07:49:32;;;;;;;3.63;2.20;;;24.00;99.90;;;;;;5032309;28;20902;-61
2022/07/02 07:52:02;;;;;;;4.80;1.50;;;24.40;99.90;;;;;;5035086;28;20467;-61
2022/07/02 07:54:30;;;;;;;2.23;1.70;;;24.30;99.90;;;;;;5036623;28;20563;-62
2022/07/02 07:56:57;;;;;;;2.67;1.60;;;24.30;99.90;;;;;;5037343;28;20451;-61
2022/07/02 07:59:25;;;;;;;4.87;2.27;;;24.70;99.90;;;;;;5037373;28;20755;-61
2022/07/02 08:01:53;;;;;;;4.27;2.20;;;25.00;99.90;;;;;;5036990;28;20770;-61
2022/07/02 08:04:20;;;;;;;5.97;2.00;;;25.20;99.90;;;;;;5038047;28;20489;-62
2022/07/02 08:06:50;;;;;;;2.97;1.67;;;25.20;99.90;;;;;;5037334;28;20876;-61
2022/07/02 08:09:17;;;;;;;2.07;1.70;;;24.80;99.90;;;;;;5037248;28;20473;-61
2022/07/02 08:11:46;;;;;;;2.30;2.10;;;24.80;99.90;;;;;;5036294;28;20907;-62
2022/07/02 08:14:13;;;;;;;1.90;1.60;;;25.00;99.90;;;;;;5036503;28;20469;-61
2022/07/02 08:16:43;;;;;;;2.50;1.57;;;25.00;99.90;;;;;;5036755;28;20459;-62
2022/07/02 08:19:13;;;;;;;3.37;2.10;;;24.90;99.90;;;;;;5028527;28;20471;-61
2022/07/02 08:21:41;;;;;;;3.40;2.10;;;25.40;99.90;;;;;;5019319;28;20479;-61
2022/07/02 08:24:09;;;;;;;3.63;1.90;;;25.60;99.90;;;;;;5031116;28;20466;-61
2022/07/02 08:26:36;;;;;;;2.27;1.70;;;25.70;99.90;;;;;;5056837;28;20494;-61
2022/07/02 08:29:05;;;;;;;2.13;1.73;;;25.80;99.90;;;;;;5046119;28;20930;-61
2022/07/02 08:31:34;;;;;;;2.13;1.70;;;25.60;99.90;;;;;;5036969;28;20556;-61
2022/07/02 08:34:02;;;;;;;2.23;1.60;;;24.80;99.90;;;;;;5035604;28;20507;-61
2022/07/02 08:36:29;;;;;;;2.97;2.30;;;23.60;99.90;;;;;;5035805;28;20466;-61
2022/07/02 08:38:56;;;;;;;1.97;1.77;;;23.10;99.90;;;;;;5036809;28;20489;-62
2022/07/02 08:41:24;;;;;;;2.40;1.50;;;22.80;99.90;;;;;;5037064;28;20470;-62
2022/07/02 08:43:56;;;;;;;2.77;2.00;;;23.10;99.90;;;;;;5035205;28;20501;-62
2022/07/02 08:46:29;;;;;;;2.10;1.90;;;23.40;99.90;;;;;;5039986;28;20501;-62
2022/07/02 08:48:58;;;;;;;4.10;1.83;;;24.40;99.90;;;;;;5040012;28;20827;-61
2022/07/02 08:51:30;;;;;;;2.10;1.90;;;25.20;99.90;;;;;;5040618;28;20858;-62
2022/07/02 08:53:58;;;;;;;2.10;1.70;;;25.80;99.90;;;;;;5040429;28;20749;-62
2022/07/02 08:56:25;;;;;;;1.97;1.77;;;26.30;99.90;;;;;;5040684;28;20465;-62
2022/07/02 08:58:54;;;;;;;1.83;1.40;;;26.80;99.90;;;;;;5040319;28;20491;-61
2022/07/02 09:01:27;;;;;;;1.60;1.50;;;26.70;99.90;;;;;;5040425;28;20467;-62
2022/07/02 09:03:55;;;;;;;2.13;1.57;;;26.40;99.90;;;;;;5040094;28;20473;-61
2022/07/02 09:06:29;;;;;;;2.60;1.97;;;25.20;99.90;;;;;;5039951;28;20469;-62
2022/07/02 09:08:57;;;;;;;2.37;1.80;;;24.60;99.90;;;;;;5040319;28;20470;-62
2022/07/02 09:11:26;;;;;;;1.80;1.70;;;25.30;99.90;;;;;;5040295;28;20469;-62
2022/07/02 09:13:55;;;;;;;2.43;2.23;;;25.80;99.90;;;;;;5039575;28;20748;-62
2022/07/02 09:16:24;;;;;;;3.90;1.70;;;26.10;99.90;;;;;;5038857;28;20474;-62
2022/07/02 09:18:51;;;;;;;2.60;2.00;;;26.00;99.90;;;;;;5039164;28;20477;-61
2022/07/02 09:21:21;;;;;;;1.80;1.60;;;26.50;99.90;;;;;;5040462;28;20475;-62
2022/07/02 09:23:54;;;;;;;3.37;1.57;;;27.20;99.90;;;;;;5032443;28;20497;-62
2022/07/02 09:26:22;;;;;;;5.70;1.60;;;27.60;99.90;;;;;;5019881;28;20850;-62
2022/07/02 09:28:55;;;;;;;1.60;1.43;;;28.10;99.90;;;;;;5019656;28;20463;-62
2022/07/02 09:31:27;;;;;;;2.43;1.70;;;28.90;99.90;;;;;;5020247;28;20467;-61
2022/07/02 09:33:57;;;;;;;2.30;1.63;;;28.70;99.90;;;;;;5019389;28;20562;-61
2022/07/02 09:36:29;;;;;;;2.87;1.40;;;28.80;99.90;;;;;;5031442;28;20903;-61
2022/07/02 09:38:56;;;;;;;3.73;1.73;;;28.60;99.90;;;;;;5036603;28;20517;-62
2022/07/02 09:41:24;;;;;;;3.53;1.83;;;27.30;99.90;;;;;;5038972;28;20601;-61
2022/07/02 09:44:04;;;;;;;2.57;1.87;;;27.10;99.90;;;;;;5039277;28;20463;-62
2022/07/02 09:46:33;;;;;;;2.63;1.90;;;26.30;99.90;;;;;;5039682;28;20491;-62
2022/07/02 09:49:07;;;;;;;2.37;1.80;;;26.70;99.90;;;;;;5039620;28;20498;-62
2022/07/02 09:52:11;;;;;;;1.63;1.50;;;27.10;99.90;;;;;;5039303;28;20474;-63
2022/07/02 09:54:38;;;;;;;2.70;1.90;;;27.20;99.90;;;;;;5036841;28;20467;-63
2022/07/02 09:57:05;;;;;;;3.03;2.30;;;27.90;99.90;;;;;;5037920;28;20454;-62
2022/07/02 09:59:37;;;;;;;2.40;2.20;;;28.40;99.90;;;;;;5038972;28;20463;-62
2022/07/02 10:02:20;;;;;;;2.57;2.10;;;28.20;99.90;;;;;;5038387;28;20499;-62
2022/07/02 10:04:51;;;;;;;2.03;1.83;;;26.70;99.90;;;;;;5038977;28;20984;-61
2022/07/02 10:07:22;;;;;;;2.43;2.27;;;26.30;99.90;;;;;;5038303;28;20495;-62
2022/07/02 10:09:49;;;;;;;3.07;2.33;;;27.00;99.90;;;;;;5038926;28;20492;-62
2022/07/02 10:12:19;;;;;;;2.50;2.30;;;27.20;99.90;;;;;;5038981;28;20513;-62
2022/07/02 10:14:53;;;;;;;3.13;1.67;;;27.70;99.90;;;;;;5038889;28;20474;-62
2022/07/02 10:17:25;;;;;;;2.77;1.90;;;28.30;99.90;;;;;;5038459;28;20480;-62
2022/07/02 10:19:53;;;;;;;1.60;1.50;;;28.50;99.90;;;;;;5038720;28;20463;-62
2022/07/02 10:22:22;;;;;;;1.90;1.77;;;28.20;99.90;;;;;;5038893;28;20466;-62
2022/07/02 10:24:53;;;;;;;1.60;1.50;;;28.70;99.90;;;;;;5038850;28;20478;-62
2022/07/02 10:27:21;;;;;;;2.00;1.80;;;29.10;99.90;;;;;;5038105;28;20491;-62
2022/07/02 10:29:51;;;;;;;3.07;2.00;;;28.80;99.90;;;;;;5038177;28;20463;-62
2022/07/02 10:32:27;;;;;;;2.00;1.60;;;29.10;99.90;;;;;;5038549;28;20467;-62
2022/07/02 10:35:09;;;;;;;3.23;1.97;;;28.70;99.90;;;;;;5039036;28;20910;-62
2022/07/02 10:37:39;;;;;;;1.60;1.50;;;28.70;99.90;;;;;;5039126;28;20459;-62
2022/07/02 10:40:11;;;;;;;2.10;1.90;;;29.10;99.90;;;;;;5038276;28;20467;-62
2022/07/02 10:42:40;;;;;;;2.30;1.90;;;29.20;99.90;;;;;;5038627;28;20934;-62
2022/07/02 10:45:14;;;;;;;4.40;1.80;;;29.10;99.90;;;;;;5038914;28;20463;-62
2022/07/02 10:47:57;;;;;;;4.70;2.17;;;29.50;99.90;;;;;;5038438;28;20494;-62
2022/07/02 10:50:28;;;;;;;2.83;1.90;;;29.80;99.90;;;;;;5038816;28;20466;-62
2022/07/02 10:52:55;;;;;;;1.80;1.70;;;30.00;99.90;;;;;;5038856;28;20510;-62
2022/07/02 10:55:32;;;;;;;3.40;2.00;;;30.20;99.90;;;;;;5038437;28;20498;-62
2022/07/02 10:58:01;;;;;;;1.77;1.67;;;29.40;99.90;;;;;;5038051;28;20494;-62
2022/07/02 11:00:33;;;;;;;2.57;1.93;;;29.20;99.90;;;;;;5038512;28;20531;-61
2022/07/02 11:03:18;;;;;;;2.07;1.87;;;28.50;99.90;;;;;;5038506;28;20462;-61
2022/07/02 11:06:06;;;;;;;3.40;2.10;;;28.30;99.90;;;;;;5039400;28;20517;-62
2022/07/02 11:08:58;;;;;;;2.10;1.70;;;28.80;99.90;;;;;;5039550;28;20487;-62
2022/07/02 11:11:57;;;;;;;3.20;2.30;;;29.70;99.90;;;;;;5036140;28;20565;-61
2022/07/02 11:14:27;;;;;;;2.40;1.80;;;29.40;99.90;;;;;;5036610;28;20565;-62
2022/07/02 11:16:56;;;;;;;2.60;1.40;;;28.70;99.90;;;;;;5037623;28;20926;-62
2022/07/02 11:19:33;;;;;;;3.37;2.00;;;29.10;99.90;;;;;;5038270;28;20926;-61
2022/07/02 11:22:05;;;;;;;1.57;1.47;;;29.10;99.90;;;;;;5044255;28;20462;-62
2022/07/02 11:24:34;;;;;;;2.27;2.10;;;29.40;99.90;;;;;;5045815;28;20643;-62
2022/07/02 11:27:07;;;;;;;1.43;1.33;;;29.30;99.90;;;;;;5042437;28;20495;-62
2022/07/02 11:29:52;;;;;;;2.50;1.70;;;29.00;99.90;;;;;;5036997;28;20465;-62
2022/07/02 11:32:24;;;;;;;5.90;1.80;;;28.90;99.90;;;;;;5028374;28;20763;-62
2022/07/02 11:35:02;;;;;;;2.10;1.40;;;28.30;99.90;;;;;;5036687;28;20569;-61
2022/07/02 11:37:30;;;;;;;2.30;1.80;;;28.40;99.90;;;;;;5034405;28;20450;-62
2022/07/02 11:39:57;;;;;;;2.83;1.70;;;29.00;99.90;;;;;;5040815;28;20463;-62
2022/07/02 11:42:36;;;;;;;1.77;1.67;;;29.40;99.90;;;;;;5046520;28;20456;-61
2022/07/02 11:45:06;;;;;;;1.93;1.83;;;29.10;99.90;;;;;;5055752;28;20468;-62
2022/07/02 11:47:42;;;;;;;1.93;1.80;;;29.50;99.90;;;;;;5048286;28;20482;-61
2022/07/02 11:50:11;;;;;;;3.33;2.23;;;29.60;99.90;;;;;;5047580;28;20461;-62
2022/07/02 11:52:40;;;;;;;1.93;1.60;;;29.80;99.90;;;;;;5040957;28;20496;-62
2022/07/02 11:55:18;;;;;;;3.30;2.00;;;30.00;99.90;;;;;;5045377;28;20498;-61
2022/07/02 11:57:49;;;;;;;2.80;1.80;;;29.20;99.90;;;;;;5045658;28;20488;-61
2022/07/02 12:00:24;;;;;;;2.20;2.00;;;29.20;99.90;;;;;;5043101;28;20796;-62
2022/07/02 12:02:53;;;;;;;2.60;2.20;;;29.70;99.90;;;;;;5043865;28;20455;-62
2022/07/02 12:05:22;;;;;;;2.67;2.00;;;30.40;99.90;;;;;;5045425;28;20462;-61
2022/07/02 12:07:49;;;;;;;2.77;2.00;;;30.00;99.90;;;;;;5052785;28;20501;-62
2022/07/02 12:10:16;;;;;;;3.17;1.83;;;29.90;99.90;;;;;;5053170;28;20469;-61
2022/07/02 12:12:50;;;;;;;3.10;1.50;;;28.70;99.90;;;;;;5052639;28;20926;-61
2022/07/02 12:15:21;;;;;;;2.30;1.93;;;28.40;99.90;;;;;;5054956;28;20462;-63
2022/07/02 12:17:49;;;;;;;3.43;2.07;;;29.00;99.90;;;;;;5057878;28;20830;-63
2022/07/02 12:20:19;;;;;;;3.10;1.60;;;29.30;99.90;;;;;;5061429;28;20466;-61
2022/07/02 12:22:56;;;;;;;5.67;2.00;;;28.60;99.90;;;;;;5061142;28;20512;-62
2022/07/02 12:25:23;;;;;;;2.47;2.00;;;28.70;99.90;;;;;;5061082;28;20461;-62
2022/07/02 12:29:52;;;;;;;1.80;1.70;;;28.80;99.90;;;;;;5060803;28;20580;-61
2022/07/02 12:31:15;;;;;;;2.77;1.80;;;29.10;99.90;;;;;;5060966;28;20465;-62
2022/07/02 12:33:42;;;;;;;2.17;1.70;;;29.60;99.90;;;;;;5042098;28;20986;-61
2022/07/02 12:36:10;;;;;;;2.37;1.40;;;29.90;99.90;;;;;;5040508;28;20904;-62
2022/07/02 12:39:20;;;;;;;2.00;1.80;;;30.00;99.90;;;;;;5039841;28;20477;-61
2022/07/02 12:41:48;;;;;;;1.93;1.60;;;29.40;99.90;;;;;;5040159;28;20438;-61
2022/07/02 12:44:32;;;;;;;2.03;1.77;;;28.70;99.90;;;;;;5038687;28;20524;-61
2022/07/02 12:47:03;;;;;;;3.83;2.50;;;28.20;99.90;;;;;;5039997;28;20528;-62
2022/07/02 12:49:35;;;;;;;3.90;1.80;;;28.20;99.90;;;;;;5040499;28;20463;-61
2022/07/02 12:52:03;;;;;;;2.27;2.10;;;29.00;99.90;;;;;;5048281;28;20454;-62
2022/07/02 12:54:40;;;;;;;2.10;1.83;;;28.80;99.90;;;;;;5048463;28;20464;-62
2022/07/02 12:57:24;;;;;;;4.13;2.40;;;28.60;99.90;;;;;;5049419;28;20451;-62
2022/07/02 12:59:53;;;;;;;4.23;1.90;;;28.70;99.90;;;;;;5047251;28;20890;-62
2022/07/02 13:02:25;;;;;;;3.23;2.17;;;28.70;99.90;;;;;;5047394;28;20466;-62
2022/07/02 13:04:55;;;;;;;1.90;1.80;;;29.10;99.90;;;;;;5041852;28;20478;-62
2022/07/02 13:07:31;;;;;;;2.70;2.20;;;29.40;99.90;;;;;;5038853;28;20490;-62